Time;durP1;ratioP1;P1;durP2;ratioP2;P2;SDS_P1;SDS_P2;PMS_P1;PMS_P2;Temp;Humidity;BMP_temperature;BMP_pressure;BME280_temperature;BME280_humidity;BME280_pressure;Samples;Min_cycle;Max_cycle;Signal;HPM_P1;HPM_P2
2022/12/17 13:08:08;;;;;;;37.92;18.30;;;;;;;-1.96;64.51;99064.63;4987125;28;20447;-83
2022/12/17 13:10:36;;;;;;;47.47;24.48;;;;;;;-1.93;64.86;99059.28;4991319;28;20137;-82
2022/12/17 13:13:16;;;;;;;41.63;20.63;;;;;;;-1.77;63.92;99063.44;4987388;28;20038;-83
2022/12/17 13:15:52;;;;;;;43.53;19.92;;;;;;;-1.68;63.95;99062.84;4987346;28;20423;-83
2022/12/17 13:18:39;;;;;;;41.65;20.35;;;;;;;-1.53;65.38;99064.44;4987543;28;20046;-83
2022/12/17 13:21:13;;;;;;;42.33;20.67;;;;;;;-1.51;64.59;99070.31;4988451;28;20030;-83
2022/12/17 13:23:39;;;;;;;38.08;20.08;;;;;;;-1.46;64.28;99068.25;4972188;28;20038;-83
2022/12/17 13:26:22;;;;;;;54.17;26.02;;;;;;;-1.48;63.92;99070.13;4971160;28;20558;-83
2022/12/17 13:28:53;;;;;;;40.42;20.80;;;;;;;-1.48;63.23;99077.84;4988505;28;20101;-83
2022/12/17 13:31:25;;;;;;;42.50;21.55;;;;;;;-1.44;65.08;99076.72;4988884;28;20038;-83
2022/12/17 13:34:24;;;;;;;41.90;20.58;;;;;;;-1.30;65.45;99075.00;4971574;28;20034;-83
2022/12/17 13:37:21;;;;;;;48.45;20.38;;;;;;;-1.29;63.82;99085.16;4986637;28;20035;-83
2022/12/17 13:40:35;;;;;;;41.90;20.73;;;;;;;-1.28;63.62;99086.00;4966831;28;20062;-83
2022/12/17 13:43:02;;;;;;;47.53;21.35;;;;;;;-1.31;63.40;99091.34;4986189;28;20093;-83
2022/12/17 13:45:37;;;;;;;43.30;21.38;;;;;;;-1.20;62.69;99094.03;4990626;28;20038;-84
2022/12/17 13:48:03;;;;;;;48.00;20.95;;;;;;;-1.08;63.49;99098.38;4990575;28;20034;-84
2022/12/17 13:50:30;;;;;;;43.33;20.45;;;;;;;-1.01;62.54;99107.34;4989419;28;20037;-84
2022/12/17 13:52:56;;;;;;;45.38;20.33;;;;;;;-1.09;62.96;99081.28;4989306;28;20445;-83
2022/12/17 13:55:28;;;;;;;47.20;22.05;;;;;;;-0.95;62.25;99078.63;4985683;28;20093;-83
2022/12/17 13:57:54;;;;;;;47.83;22.50;;;;;;;-0.86;62.77;99096.00;4990907;28;20544;-83
2022/12/17 14:00:29;;;;;;;43.60;21.05;;;;;;;-0.72;62.02;99109.72;4989306;28;20097;-83
2022/12/17 14:02:55;;;;;;;42.20;20.20;;;;;;;-0.64;62.47;99103.13;4990808;28;20037;-83
2022/12/17 14:05:37;;;;;;;40.70;20.45;;;;;;;-0.56;62.54;99105.19;4970044;28;20049;-84
2022/12/17 14:08:04;;;;;;;40.80;21.23;;;;;;;-0.41;62.87;99113.63;4990021;28;20038;-83
2022/12/17 14:10:31;;;;;;;47.72;22.33;;;;;;;-0.08;61.90;99113.03;4990286;28;20069;-84
2022/12/17 14:13:06;;;;;;;45.40;21.38;;;;;;;0.33;61.41;99114.44;4969637;28;20027;-83
2022/12/17 14:15:34;;;;;;;45.58;20.48;;;;;;;0.67;59.87;99111.06;4989993;28;20165;-83
2022/12/17 14:18:01;;;;;;;46.17;22.08;;;;;;;1.14;56.76;99127.41;4997700;28;20377;-88
2022/12/17 14:20:36;;;;;;;44.15;23.60;;;;;;;1.19;56.03;99130.44;5004908;28;20034;-87
2022/12/17 14:23:13;;;;;;;44.53;22.15;;;;;;;1.27;55.61;99128.13;5002863;28;20038;-88
2022/12/17 14:25:42;;;;;;;43.88;22.30;;;;;;;1.36;56.55;99138.69;5004863;28;20069;-87
2022/12/17 14:28:23;;;;;;;49.42;22.95;;;;;;;1.48;54.81;99140.34;4994839;28;20029;-87
2022/12/17 14:30:51;;;;;;;47.13;22.75;;;;;;;1.60;54.87;99136.84;4992883;28;20070;-87
2022/12/17 14:33:35;;;;;;;48.78;23.27;;;;;;;1.69;54.15;99128.38;4991168;28;20580;-87
2022/12/17 14:36:07;;;;;;;40.03;19.90;;;;;;;1.93;53.74;99130.03;5002862;28;20030;-88
2022/12/17 14:38:34;;;;;;;43.17;20.92;;;;;;;1.75;53.91;99134.84;4990162;28;20622;-88
2022/12/17 14:44:00;;;;;;;43.65;20.85;;;;;;;1.30;55.22;99130.47;5000766;28;20062;-88
2022/12/17 14:46:29;;;;;;;39.42;19.70;;;;;;;0.43;56.35;99131.75;5001066;28;20030;-88
2022/12/17 14:49:01;;;;;;;45.35;21.80;;;;;;;-0.09;58.41;99137.19;4999790;28;20042;-88
2022/12/17 14:51:38;;;;;;;44.35;22.13;;;;;;;-0.16;59.89;99133.38;5008964;28;20402;-88
2022/12/17 14:54:24;;;;;;;49.28;22.10;;;;;;;-0.41;60.22;99140.22;4977946;28;20038;-88
2022/12/17 14:56:56;;;;;;;43.63;20.98;;;;;;;-0.93;61.56;99141.16;4997519;28;20038;-88
2022/12/17 14:59:36;;;;;;;45.53;23.55;;;;;;;-1.12;62.37;99131.22;5002592;28;20045;-88
2022/12/17 15:02:27;;;;;;;42.17;21.98;;;;;;;-1.28;63.67;99142.63;4979436;28;20038;-88
2022/12/17 15:05:00;;;;;;;52.72;24.08;;;;;;;-1.17;63.77;99140.19;4981055;28;20039;-87
2022/12/17 15:07:30;;;;;;;41.45;21.98;;;;;;;-1.06;63.35;99142.88;5000444;28;20035;-88
2022/12/17 15:09:57;;;;;;;46.07;22.60;;;;;;;-0.98;63.23;99153.50;5007070;28;20100;-87
2022/12/17 15:12:24;;;;;;;44.53;22.77;;;;;;;-1.03;63.62;99152.13;4956596;28;20035;-87
2022/12/17 15:14:49;;;;;;;47.83;22.65;;;;;;;-1.22;63.24;99149.94;4992879;28;20034;-87
2022/12/17 15:17:16;;;;;;;39.88;19.60;;;;;;;-1.52;63.98;99151.00;4996272;28;20184;-87
2022/12/17 15:19:42;;;;;;;41.55;19.45;;;;;;;-1.67;65.02;99162.25;4996254;28;20042;-87
2022/12/17 15:22:17;;;;;;;41.72;20.42;;;;;;;-1.73;65.42;99163.47;4999423;28;20042;-87
2022/12/17 15:24:44;;;;;;;44.72;20.90;;;;;;;-1.81;65.41;99154.56;4953290;28;20031;-86
2022/12/17 15:27:15;;;;;;;43.10;22.17;;;;;;;-1.84;65.77;99157.34;5002226;28;20034;-86
2022/12/17 15:29:42;;;;;;;67.40;26.80;;;;;;;-1.92;66.01;99158.66;5000726;28;20120;-87
2022/12/17 15:32:21;;;;;;;58.08;25.77;;;;;;;-2.00;65.93;99157.47;4995983;28;20401;-87
2022/12/17 15:34:47;;;;;;;55.00;23.08;;;;;;;-2.07;66.23;99161.31;4995490;28;20034;-87
2022/12/17 15:37:14;;;;;;;50.90;22.85;;;;;;;-2.14;66.86;99160.88;4994589;28;20062;-86
2022/12/17 15:39:40;;;;;;;53.22;22.95;;;;;;;-2.17;67.05;99169.59;4995577;28;20049;-87
2022/12/17 15:44:50;;;;;;;48.55;22.85;;;;;;;-2.28;67.92;99169.44;4988694;28;20494;-86
2022/12/17 15:47:15;;;;;;;52.42;24.15;;;;;;;-2.38;68.27;99165.75;4992656;28;20030;-86
2022/12/17 15:49:42;;;;;;;49.05;22.83;;;;;;;-2.43;68.36;99168.59;4990544;28;20045;-86
2022/12/17 15:52:08;;;;;;;54.10;24.38;;;;;;;-2.47;68.75;99166.28;5006063;28;20037;-87
2022/12/17 15:54:33;;;;;;;58.88;26.65;;;;;;;-2.61;68.87;99171.44;5009272;28;20037;-86
2022/12/17 15:56:59;;;;;;;67.07;29.13;;;;;;;-2.57;69.10;99170.34;4995538;28;20085;-87
2022/12/17 15:59:24;;;;;;;55.80;27.58;;;;;;;-2.66;69.49;99161.41;4999756;28;20053;-87
2022/12/17 16:01:50;;;;;;;47.28;23.20;;;;;;;-2.70;69.59;99154.81;4980197;28;20057;-86
2022/12/17 16:04:15;;;;;;;40.63;20.55;;;;;;;-2.70;69.84;99165.06;5006395;28;20397;-86
2022/12/17 16:06:41;;;;;;;44.50;20.83;;;;;;;-2.77;70.07;99163.78;4992866;28;20085;-86
2022/12/17 16:09:06;;;;;;;37.55;19.90;;;;;;;-2.78;70.11;99173.25;4991434;28;20040;-87
2022/12/17 16:11:31;;;;;;;43.58;21.63;;;;;;;-2.78;70.06;99172.41;4995482;28;20092;-86
2022/12/17 16:13:57;;;;;;;47.58;23.15;;;;;;;-2.80;70.08;99171.69;4997854;28;20505;-86
2022/12/17 16:16:23;;;;;;;44.65;21.63;;;;;;;-2.85;70.06;99177.09;5001073;28;20034;-86
2022/12/17 16:18:50;;;;;;;43.45;20.85;;;;;;;-2.88;70.26;99182.38;5006471;28;20040;-87
2022/12/17 16:21:16;;;;;;;49.10;22.60;;;;;;;-2.94;70.17;99182.72;4974994;28;20129;-86
2022/12/17 16:23:49;;;;;;;42.58;20.38;;;;;;;-2.98;70.16;99182.09;4989430;28;20033;-87
2022/12/17 16:26:14;;;;;;;39.38;19.85;;;;;;;-3.00;70.57;99183.09;4998471;28;20034;-86
2022/12/17 16:28:40;;;;;;;45.97;21.02;;;;;;;-3.10;70.65;99187.94;5001780;28;20041;-86
2022/12/17 16:31:10;;;;;;;45.92;21.13;;;;;;;-3.13;70.60;99188.09;4995574;28;20072;-86
2022/12/17 16:33:40;;;;;;;43.05;21.80;;;;;;;-3.16;70.80;99187.47;4999200;28;20042;-86
2022/12/17 16:36:09;;;;;;;37.50;19.77;;;;;;;-3.20;70.70;99183.41;4995483;28;20045;-87
2022/12/17 16:38:40;;;;;;;43.17;20.38;;;;;;;-3.23;70.52;99186.97;4995813;28;20046;-87
2022/12/17 16:41:08;;;;;;;51.35;22.38;;;;;;;-3.30;70.56;99190.78;5002562;28;20080;-86
2022/12/17 16:43:33;;;;;;;49.78;22.00;;;;;;;-3.39;70.85;99194.69;4992809;28;20402;-86
2022/12/17 16:45:59;;;;;;;45.65;21.98;;;;;;;-3.38;71.14;99193.78;4979054;28;20036;-86
2022/12/17 16:48:24;;;;;;;46.42;20.83;;;;;;;-3.50;71.23;99208.09;4993125;28;20029;-85
2022/12/17 16:50:50;;;;;;;44.28;21.95;;;;;;;-3.61;71.96;99212.16;4991991;28;20034;-85
2022/12/17 16:53:17;;;;;;;53.58;24.42;;;;;;;-3.68;72.12;99208.28;4995029;28;20109;-86
2022/12/17 16:55:46;;;;;;;45.22;21.88;;;;;;;-3.69;72.49;99207.44;5009821;28;20041;-86
2022/12/17 16:58:16;;;;;;;45.58;22.40;;;;;;;-3.67;72.07;99204.78;4980387;28;20035;-86
2022/12/17 17:00:45;;;;;;;50.35;23.65;;;;;;;-3.72;72.19;99197.34;4992856;28;20047;-86
2022/12/17 17:03:10;;;;;;;42.58;22.42;;;;;;;-3.69;71.84;99194.63;4997285;28;20133;-86
2022/12/17 17:05:38;;;;;;;44.53;21.50;;;;;;;-3.72;71.64;99199.91;4992964;28;20113;-86
2022/12/17 17:08:05;;;;;;;48.33;23.58;;;;;;;-3.73;71.73;99212.81;4994807;28;20533;-86
2022/12/17 17:10:35;;;;;;;55.95;26.20;;;;;;;-3.75;71.73;99204.41;4991029;28;20046;-86
2022/12/17 17:13:02;;;;;;;72.85;32.88;;;;;;;-3.79;71.68;99211.41;4997422;28;20034;-86
2022/12/17 17:15:27;;;;;;;73.22;32.85;;;;;;;-3.84;72.22;99208.25;4985845;28;20066;-86
2022/12/17 17:17:53;;;;;;;69.70;29.80;;;;;;;-3.88;72.00;99209.34;4989962;28;20077;-86
2022/12/17 17:20:18;;;;;;;66.47;30.60;;;;;;;-3.91;72.07;99220.56;4994399;28;20044;-86
2022/12/17 17:22:44;;;;;;;62.88;27.05;;;;;;;-3.99;72.12;99222.72;4994799;28;20034;-85
2022/12/17 17:25:09;;;;;;;59.28;24.17;;;;;;;-3.99;72.78;99227.03;4997142;28;20022;-86
2022/12/17 17:27:35;;;;;;;52.28;25.17;;;;;;;-4.06;72.90;99231.66;5000679;28;20049;-86
2022/12/17 17:30:00;;;;;;;51.53;24.50;;;;;;;-4.12;72.89;99227.66;5014568;28;20065;-86
2022/12/17 17:32:26;;;;;;;51.25;24.05;;;;;;;-4.18;72.55;99227.16;5001801;28;20038;-86
2022/12/17 17:34:52;;;;;;;49.03;24.10;;;;;;;-4.20;72.74;99228.97;4995548;28;20035;-87
2022/12/17 17:37:18;;;;;;;46.28;21.88;;;;;;;-4.19;72.33;99231.47;5014760;28;20085;-86
2022/12/17 17:39:44;;;;;;;43.15;22.38;;;;;;;-4.22;71.81;99239.28;4994586;28;20034;-86
2022/12/17 17:42:09;;;;;;;46.92;23.90;;;;;;;-4.27;71.52;99243.81;4988196;28;20026;-86
2022/12/17 17:44:36;;;;;;;45.65;21.35;;;;;;;-4.31;71.45;99242.34;4995119;28;20057;-87
2022/12/17 17:47:02;;;;;;;44.90;20.92;;;;;;;-4.34;71.24;99247.59;4997679;28;20459;-86
2022/12/17 17:49:27;;;;;;;46.15;20.88;;;;;;;-4.39;71.81;99249.56;4988533;28;20470;-87
2022/12/17 17:51:53;;;;;;;40.65;20.30;;;;;;;-4.44;71.85;99252.34;5011430;28;20091;-86
2022/12/17 17:54:18;;;;;;;47.63;22.60;;;;;;;-4.47;71.30;99252.53;4977225;28;20048;-86
2022/12/17 17:56:44;;;;;;;46.90;21.73;;;;;;;-4.53;71.37;99252.00;4994931;28;20389;-86
2022/12/17 17:59:18;;;;;;;37.30;20.23;;;;;;;-4.59;71.37;99253.97;4994927;28;20042;-86
2022/12/17 18:01:48;;;;;;;42.80;20.17;;;;;;;-4.62;71.42;99258.38;5002682;28;20382;-86
2022/12/17 18:04:18;;;;;;;42.43;21.03;;;;;;;-4.66;71.42;99259.47;5006110;28;20543;-86
2022/12/17 18:06:57;;;;;;;37.67;20.30;;;;;;;-4.72;71.88;99273.41;5011177;28;20277;-86
2022/12/17 18:09:23;;;;;;;39.63;20.65;;;;;;;-4.75;71.85;99273.53;5004335;28;20049;-87
2022/12/17 18:11:48;;;;;;;44.92;22.23;;;;;;;-4.79;72.06;99271.22;5003827;28;20069;-86
2022/12/17 18:14:14;;;;;;;49.00;21.60;;;;;;;-4.81;72.49;99278.94;4977549;28;20081;-86
2022/12/17 18:16:43;;;;;;;49.38;22.15;;;;;;;-4.88;72.18;99277.59;4994498;28;20045;-86
2022/12/17 18:19:21;;;;;;;48.20;22.63;;;;;;;-4.89;72.80;99281.06;4989971;28;20045;-86
2022/12/17 18:21:48;;;;;;;41.72;20.55;;;;;;;-4.92;72.48;99276.06;4994565;28;20034;-86
2022/12/17 18:24:15;;;;;;;40.65;20.45;;;;;;;-4.96;71.81;99277.13;4994981;28;20089;-86
2022/12/17 18:26:43;;;;;;;42.10;20.23;;;;;;;-5.06;71.38;99263.94;4978671;28;20041;-87
2022/12/17 18:29:10;;;;;;;36.20;18.42;;;;;;;-5.04;71.00;99272.38;4992877;28;20030;-87
2022/12/17 18:31:36;;;;;;;40.97;19.90;;;;;;;-5.06;71.36;99281.03;4992889;28;20034;-87
2022/12/17 18:34:03;;;;;;;49.63;23.98;;;;;;;-5.10;71.27;99280.34;4993790;28;20113;-87
2022/12/17 18:36:33;;;;;;;47.40;23.35;;;;;;;-5.20;72.03;99276.56;4992647;28;20140;-87
2022/12/17 18:39:22;;;;;;;52.38;23.90;;;;;;;-5.18;71.90;99280.69;4993472;28;20050;-87
2022/12/17 18:44:38;;;;;;;39.53;22.33;;;;;;;-5.27;71.86;99275.19;4963072;28;20049;-88
2022/12/17 18:47:03;;;;;;;49.58;24.90;;;;;;;-5.34;71.95;99272.06;4994078;28;20438;-88
2022/12/17 18:49:29;;;;;;;40.65;18.52;;;;;;;-5.39;70.88;99276.59;4996624;28;20116;-87
2022/12/17 18:51:54;;;;;;;38.28;19.80;;;;;;;-5.39;70.31;99281.72;4996700;28;20045;-87
2022/12/17 18:54:27;;;;;;;37.40;18.25;;;;;;;-5.47;70.34;99278.66;4976962;28;20035;-87
2022/12/17 18:56:56;;;;;;;42.22;21.38;;;;;;;-5.48;70.82;99288.06;4994154;28;20046;-87
2022/12/17 18:59:25;;;;;;;43.22;20.95;;;;;;;-5.53;71.69;99281.50;4976516;28;20030;-87
2022/12/17 19:01:52;;;;;;;43.58;20.80;;;;;;;-5.56;71.62;99290.16;4994086;28;20038;-87
2022/12/17 19:04:19;;;;;;;47.22;21.00;;;;;;;-5.52;71.43;99295.94;4991855;28;20085;-87
2022/12/17 19:07:04;;;;;;;38.00;18.80;;;;;;;-5.56;71.63;99289.31;4974734;28;20663;-87
2022/12/17 19:09:48;;;;;;;37.08;19.75;;;;;;;-5.63;71.05;99296.44;4978907;28;20030;-87
2022/12/17 19:12:13;;;;;;;38.17;19.38;;;;;;;-5.69;71.06;99294.97;4993878;28;20034;-86
2022/12/17 19:14:39;;;;;;;36.55;18.77;;;;;;;-5.76;71.10;99298.69;4967028;28;20033;-87
2022/12/17 19:17:05;;;;;;;39.47;20.40;;;;;;;-5.82;71.19;99304.06;5002259;28;20110;-87
2022/12/17 19:19:31;;;;;;;42.67;22.10;;;;;;;-5.78;71.09;99309.88;4993365;28;20033;-87
2022/12/17 19:21:59;;;;;;;36.92;19.98;;;;;;;-5.88;71.30;99303.50;4993525;28;20034;-87
2022/12/17 19:24:24;;;;;;;41.20;19.55;;;;;;;-5.86;70.85;99314.50;4975419;28;20500;-87
2022/12/17 19:26:51;;;;;;;41.63;21.40;;;;;;;-5.90;70.64;99316.34;4992980;28;20026;-87
2022/12/17 19:29:19;;;;;;;45.67;21.23;;;;;;;-5.95;70.46;99318.31;5000132;28;20165;-87
2022/12/17 19:31:44;;;;;;;36.25;19.45;;;;;;;-5.95;70.96;99313.19;5004155;28;20080;-87
2022/12/17 19:34:14;;;;;;;42.38;21.73;;;;;;;-5.94;70.67;99325.06;4990581;28;20118;-87
2022/12/17 19:36:40;;;;;;;44.83;22.63;;;;;;;-6.05;70.54;99317.06;4973163;28;20046;-87
2022/12/17 19:39:11;;;;;;;49.40;23.42;;;;;;;-6.03;70.82;99320.38;4974282;28;20070;-86
2022/12/17 19:41:37;;;;;;;42.42;22.55;;;;;;;-6.03;70.88;99328.03;4988827;28;20050;-87
2022/12/17 19:44:07;;;;;;;45.65;21.80;;;;;;;-6.06;70.93;99325.59;4975764;28;20037;-87
2022/12/17 19:46:34;;;;;;;44.95;22.92;;;;;;;-6.10;71.12;99316.44;4993884;28;20165;-87
2022/12/17 19:49:02;;;;;;;41.63;22.85;;;;;;;-6.12;71.12;99330.97;4993536;28;20034;-87
2022/12/17 19:51:29;;;;;;;45.45;23.10;;;;;;;-6.16;71.12;99319.25;4996500;28;20661;-87
2022/12/17 19:53:55;;;;;;;46.30;22.38;;;;;;;-6.12;71.44;99330.97;4975138;28;20068;-87
2022/12/17 19:56:28;;;;;;;46.30;24.73;;;;;;;-6.15;71.32;99326.84;4993535;28;20637;-87
2022/12/17 19:58:59;;;;;;;38.55;21.38;;;;;;;-6.17;71.53;99317.59;4993445;28;20086;-87
2022/12/17 20:01:31;;;;;;;42.10;21.75;;;;;;;-6.21;71.30;99311.78;5002781;28;20455;-87
2022/12/17 20:03:57;;;;;;;47.78;21.25;;;;;;;-6.17;71.40;99333.75;4978188;28;20672;-87
2022/12/17 20:06:27;;;;;;;44.88;22.30;;;;;;;-6.27;71.26;99328.19;4995208;28;20037;-83
2022/12/17 20:08:53;;;;;;;45.43;22.53;;;;;;;-6.23;71.12;99331.44;4990677;28;20104;-83
2022/12/17 20:11:32;;;;;;;38.05;19.15;;;;;;;-6.30;70.61;99318.06;4989978;28;20743;-83
2022/12/17 20:14:12;;;;;;;43.53;21.85;;;;;;;-6.29;70.59;99327.41;4975735;28;20511;-83
2022/12/17 20:16:47;;;;;;;44.33;19.95;;;;;;;-6.32;70.49;99319.88;4971868;28;20038;-83
2022/12/17 20:19:17;;;;;;;39.08;22.10;;;;;;;-6.36;70.57;99328.53;4993219;28;20561;-83
2022/12/17 20:21:43;;;;;;;49.25;22.40;;;;;;;-6.43;70.45;99324.59;4990826;28;20038;-83
2022/12/17 20:24:11;;;;;;;44.85;21.70;;;;;;;-6.51;70.63;99304.50;4976202;28;20037;-83
2022/12/17 20:26:36;;;;;;;40.53;21.38;;;;;;;-6.41;70.61;99319.44;4993007;28;20065;-83
2022/12/17 20:29:04;;;;;;;45.78;22.02;;;;;;;-6.52;70.47;99314.78;4995183;28;20088;-82
2022/12/17 20:31:30;;;;;;;42.22;21.58;;;;;;;-6.59;69.74;99314.19;4993236;28;20034;-82
2022/12/17 20:33:57;;;;;;;44.38;21.23;;;;;;;-6.67;69.70;99323.88;4993838;28;20038;-83
2022/12/17 20:36:23;;;;;;;47.67;23.85;;;;;;;-6.69;69.98;99329.94;4973330;28;20524;-83
2022/12/17 20:38:49;;;;;;;44.83;22.02;;;;;;;-6.76;70.07;99307.22;4992164;28;20045;-83
2022/12/17 20:41:24;;;;;;;41.28;22.90;;;;;;;-6.70;70.39;99318.06;4993162;28;20030;-83
2022/12/17 20:43:50;;;;;;;43.20;22.63;;;;;;;-6.71;70.71;99326.63;4992178;28;20037;-83
2022/12/17 20:46:19;;;;;;;42.28;22.50;;;;;;;-6.73;70.50;99324.13;4954559;28;20077;-83
2022/12/17 20:48:45;;;;;;;44.03;21.50;;;;;;;-6.71;69.96;99334.28;4996629;28;20453;-83
2022/12/17 20:51:17;;;;;;;42.70;21.30;;;;;;;-6.75;70.04;99331.84;4991270;28;20109;-83
2022/12/17 20:53:45;;;;;;;48.55;23.80;;;;;;;-6.84;70.06;99327.09;4989510;28;20049;-82
2022/12/17 20:56:15;;;;;;;43.70;22.60;;;;;;;-6.83;69.69;99341.53;4988780;28;20038;-83
2022/12/17 20:58:41;;;;;;;48.30;24.65;;;;;;;-6.85;69.65;99340.72;4988730;28;20049;-83
2022/12/17 21:01:14;;;;;;;41.97;20.98;;;;;;;-6.92;69.42;99346.97;4987553;28;20155;-83
2022/12/17 21:03:41;;;;;;;40.95;22.08;;;;;;;-6.93;70.16;99336.84;4970214;28;20035;-83
2022/12/17 21:06:19;;;;;;;46.58;24.08;;;;;;;-6.94;70.01;99332.63;4971371;28;20057;-83
2022/12/17 21:08:47;;;;;;;44.10;22.88;;;;;;;-6.96;70.02;99331.84;4971281;28;20806;-83
2022/12/17 21:11:18;;;;;;;41.47;23.73;;;;;;;-7.02;69.89;99331.22;4978472;28;20047;-83
2022/12/17 21:13:44;;;;;;;45.45;21.73;;;;;;;-7.12;69.86;99327.34;4964362;28;20048;-83
2022/12/17 21:16:14;;;;;;;44.58;23.40;;;;;;;-7.04;69.70;99335.53;4990654;28;20034;-83
2022/12/17 21:18:40;;;;;;;41.83;25.10;;;;;;;-7.07;69.71;99339.94;4988378;28;20046;-83
2022/12/17 21:21:13;;;;;;;41.03;24.52;;;;;;;-7.17;69.82;99351.34;4991014;28;20946;-82
2022/12/17 21:23:40;;;;;;;47.55;22.50;;;;;;;-7.21;69.64;99348.09;4986706;28;20581;-82
2022/12/17 21:26:22;;;;;;;41.45;22.48;;;;;;;-7.25;69.46;99348.28;4989766;28;20442;-83
2022/12/17 21:28:52;;;;;;;42.03;21.05;;;;;;;-7.20;69.26;99354.84;4989639;28;20034;-83
2022/12/17 21:31:23;;;;;;;34.13;20.63;;;;;;;-7.26;69.29;99365.25;4992319;28;20490;-83
2022/12/17 21:33:52;;;;;;;33.30;19.75;;;;;;;-7.29;69.93;99371.31;4969898;28;20047;-83
2022/12/17 21:36:20;;;;;;;37.63;19.08;;;;;;;-7.30;70.11;99372.22;4979502;28;20870;-83
2022/12/17 21:38:47;;;;;;;41.15;22.17;;;;;;;-7.39;70.29;99371.72;4993937;28;20050;-82
2022/12/17 21:41:17;;;;;;;42.70;21.08;;;;;;;-7.31;69.85;99388.41;4995747;28;20038;-83
2022/12/17 21:43:43;;;;;;;36.92;20.45;;;;;;;-7.37;70.51;99365.69;4952540;28;20066;-83
2022/12/17 21:46:10;;;;;;;39.95;20.67;;;;;;;-7.31;70.32;99385.03;4982729;28;20038;-83
2022/12/17 21:48:40;;;;;;;40.75;20.33;;;;;;;-7.32;69.68;99391.81;4991850;28;20034;-83
2022/12/17 21:51:09;;;;;;;36.15;21.27;;;;;;;-7.33;69.71;99390.16;4985705;28;20042;-82
2022/12/17 21:53:40;;;;;;;45.03;20.25;;;;;;;-7.33;69.49;99389.31;4988789;28;20034;-83
2022/12/17 21:56:10;;;;;;;41.67;20.48;;;;;;;-7.43;69.16;99401.59;4988122;28;20035;-83
2022/12/17 21:58:36;;;;;;;42.75;20.10;;;;;;;-7.47;69.85;99405.13;4989928;28;20049;-83
2022/12/17 22:01:20;;;;;;;44.55;21.27;;;;;;;-7.45;69.83;99405.06;4990522;28;20490;-83
2022/12/17 22:03:48;;;;;;;39.47;20.20;;;;;;;-7.45;69.92;99395.69;4969387;28;20065;-83
2022/12/17 22:06:16;;;;;;;39.17;21.30;;;;;;;-7.43;69.54;99399.03;4988813;28;20054;-83
2022/12/17 22:08:44;;;;;;;42.10;21.15;;;;;;;-7.45;69.38;99411.00;4993507;28;20034;-83
2022/12/17 22:11:23;;;;;;;42.08;21.98;;;;;;;-7.49;69.81;99400.97;4990913;28;20031;-83
2022/12/17 22:14:01;;;;;;;41.17;21.23;;;;;;;-7.46;69.49;99411.88;4991939;28;20058;-82
2022/12/17 22:16:37;;;;;;;44.13;21.23;;;;;;;-7.49;69.57;99417.09;4991255;28;20041;-83
2022/12/17 22:19:09;;;;;;;40.80;22.52;;;;;;;-7.48;69.79;99411.13;4971681;28;20047;-83
2022/12/17 22:21:38;;;;;;;40.20;21.27;;;;;;;-7.50;69.97;99417.97;4991355;28;20042;-83
2022/12/17 22:24:05;;;;;;;39.00;21.40;;;;;;;-7.48;70.26;99407.75;4993342;28;20490;-82
2022/12/17 22:26:32;;;;;;;45.15;23.50;;;;;;;-7.61;69.93;99404.81;4991985;28;20117;-83
2022/12/17 22:28:59;;;;;;;38.55;20.73;;;;;;;-7.64;69.53;99408.25;4973280;28;20073;-82
2022/12/17 22:34:11;;;;;;;40.63;22.95;;;;;;;-7.66;69.54;99406.69;4994567;28;20041;-82
2022/12/17 22:36:38;;;;;;;40.33;21.80;;;;;;;-7.72;69.11;99425.53;4995311;28;20372;-83
2022/12/17 22:39:09;;;;;;;43.85;21.63;;;;;;;-7.79;68.95;99425.81;4994020;28;20034;-83
2022/12/17 22:44:21;;;;;;;50.72;23.75;;;;;;;-7.79;69.39;99429.19;4997684;28;20051;-82
2022/12/17 22:46:47;;;;;;;48.45;24.85;;;;;;;-7.83;68.99;99430.19;4999907;28;20030;-83
2022/12/17 22:49:13;;;;;;;44.38;24.40;;;;;;;-8.04;69.29;99406.25;4990611;28;20441;-82
2022/12/17 22:51:41;;;;;;;46.75;25.45;;;;;;;-7.84;69.46;99431.88;4991360;28;20367;-83
2022/12/17 22:54:12;;;;;;;49.08;25.52;;;;;;;-7.99;69.22;99416.28;4992572;28;20038;-82
2022/12/17 22:56:41;;;;;;;40.90;22.60;;;;;;;-7.81;68.50;99444.50;4994776;28;20074;-82
2022/12/17 22:59:07;;;;;;;45.35;23.00;;;;;;;-7.89;68.68;99443.13;4991634;28;20045;-82
2022/12/17 23:01:34;;;;;;;43.67;23.70;;;;;;;-7.83;69.03;99441.19;4992222;28;20045;-82
2022/12/17 23:04:01;;;;;;;47.65;23.23;;;;;;;-7.86;68.97;99438.72;4988836;28;20057;-82
2022/12/17 23:06:27;;;;;;;50.15;24.83;;;;;;;-7.84;69.17;99441.25;4993144;28;20035;-82
2022/12/17 23:08:53;;;;;;;44.33;21.20;;;;;;;-7.86;68.87;99435.34;4997556;28;20462;-82
2022/12/17 23:11:26;;;;;;;46.65;21.63;;;;;;;-7.84;69.17;99434.44;4992413;28;20046;-82
2022/12/17 23:13:52;;;;;;;39.88;20.02;;;;;;;-7.86;69.21;99426.00;4992795;28;20103;-82
2022/12/17 23:16:18;;;;;;;38.97;20.70;;;;;;;-7.87;69.41;99429.44;4969647;28;20034;-82
2022/12/17 23:18:46;;;;;;;40.83;22.55;;;;;;;-7.91;68.84;99422.81;4992261;28;20037;-82
2022/12/17 23:21:22;;;;;;;50.17;22.73;;;;;;;-7.95;68.93;99423.78;5000195;28;20038;-82
2022/12/17 23:23:48;;;;;;;41.90;20.88;;;;;;;-7.96;69.21;99417.03;4991903;28;20572;-82
2022/12/17 23:26:25;;;;;;;44.20;22.58;;;;;;;-8.05;68.19;99414.78;4964903;28;20061;-82
2022/12/17 23:29:01;;;;;;;40.95;20.25;;;;;;;-8.07;67.94;99416.53;4994392;28;20034;-82
2022/12/17 23:31:32;;;;;;;45.17;20.48;;;;;;;-8.13;68.20;99421.84;4993920;28;20034;-82
2022/12/17 23:33:57;;;;;;;35.95;18.45;;;;;;;-8.63;68.49;99417.53;4995293;28;20038;-81
2022/12/17 23:36:24;;;;;;;38.10;19.27;;;;;;;-8.71;70.21;99413.53;4992178;28;20042;-82
2022/12/17 23:38:51;;;;;;;36.03;18.45;;;;;;;-8.58;70.42;99435.16;4996293;28;20054;-81
2022/12/17 23:41:20;;;;;;;34.38;18.17;;;;;;;-8.55;69.46;99432.53;4995123;28;20129;-81
2022/12/17 23:43:47;;;;;;;42.03;19.55;;;;;;;-8.54;69.20;99430.84;4997017;28;20125;-81
2022/12/17 23:46:14;;;;;;;37.38;20.00;;;;;;;-8.44;68.54;99443.22;4992602;28;20490;-82
2022/12/17 23:48:42;;;;;;;27.05;16.38;;;;;;;-8.63;69.98;99439.59;4972309;28;20031;-81
2022/12/17 23:51:09;;;;;;;27.25;15.55;;;;;;;-9.04;72.17;99440.81;4990407;28;20044;-82
2022/12/17 23:53:37;;;;;;;33.63;18.33;;;;;;;-9.19;73.19;99439.53;4990585;28;20141;-82
2022/12/17 23:56:10;;;;;;;44.33;21.65;;;;;;;-9.22;72.85;99443.00;4991404;28;20390;-82
2022/12/17 23:58:37;;;;;;;43.65;22.02;;;;;;;-9.10;71.85;99434.22;4989355;28;20034;-83
